createdAt,value
2023-05-10T00:01:59.875Z,11.59
2023-05-10T00:06:58.592Z,11.51
2023-05-10T00:11:59.525Z,11.41
2023-05-10T00:16:58.378Z,11.44
2023-05-10T00:21:57.178Z,11.47
2023-05-10T00:26:55.913Z,11.44
2023-05-10T00:31:56.126Z,11.33
2023-05-10T00:36:54.976Z,11.27
2023-05-10T00:41:53.725Z,11.33
2023-05-10T00:46:53.034Z,11.33
2023-05-10T00:51:53.339Z,11.34
2023-05-10T00:56:53.288Z,11.34
2023-05-10T01:01:52.711Z,11.28
2023-05-10T01:06:53.018Z,11.10
2023-05-10T01:11:52.170Z,11.00
2023-05-10T01:16:52.411Z,10.95
2023-05-10T01:22:00.829Z,10.91
2023-05-10T01:27:36.998Z,10.87
2023-05-10T01:32:44.548Z,10.92
2023-05-10T01:37:47.540Z,10.95
2023-05-10T01:42:53.429Z,10.91
2023-05-10T01:48:00.831Z,10.89
2023-05-10T01:53:01.643Z,10.83
2023-05-10T01:58:06.884Z,10.83
2023-05-10T02:03:10.865Z,10.83
2023-05-10T02:08:10.546Z,10.83
2023-05-10T02:13:11.183Z,10.72
2023-05-10T02:18:13.146Z,10.68
2023-05-10T02:23:13.313Z,10.63
2023-05-10T02:28:14.262Z,10.71
2023-05-10T02:33:15.736Z,10.72
2023-05-10T02:38:17.241Z,10.67
2023-05-10T02:43:19.408Z,10.53
2023-05-10T02:48:19.975Z,10.50
2023-05-10T02:53:24.593Z,10.51
2023-05-10T02:58:24.102Z,10.56
2023-05-10T03:03:24.205Z,10.56
2023-05-10T03:08:24.368Z,10.61
2023-05-10T03:13:33.163Z,10.63
2023-05-10T03:18:39.748Z,10.61
2023-05-10T03:23:45.447Z,10.54
2023-05-10T03:28:44.487Z,10.58
2023-05-10T03:33:50.437Z,10.46
2023-05-10T03:38:54.486Z,10.29
2023-05-10T03:43:53.669Z,10.32
2023-05-10T03:48:53.802Z,10.28
2023-05-10T03:53:52.892Z,10.30
2023-05-10T03:58:52.319Z,10.35
2023-05-10T04:03:51.195Z,10.40
2023-05-10T04:08:51.473Z,10.43
2023-05-10T04:13:50.946Z,10.36
2023-05-10T04:18:49.743Z,10.41
2023-05-10T04:23:48.621Z,10.50
2023-05-10T04:28:48.786Z,10.48
2023-05-10T04:33:50.989Z,10.57
2023-05-10T04:38:49.829Z,10.47
2023-05-10T04:43:51.204Z,10.64
2023-05-10T04:48:50.223Z,10.71
2023-05-10T04:54:01.621Z,10.92
2023-05-10T04:59:05.477Z,11.13
2023-05-10T05:04:04.382Z,11.17
2023-05-10T05:09:03.354Z,11.32
2023-05-10T05:14:02.127Z,11.27
2023-05-10T05:19:02.759Z,11.42
2023-05-10T05:24:01.860Z,11.65
2023-05-10T05:29:00.672Z,11.72
2023-05-10T05:33:59.441Z,11.87
2023-05-10T05:38:59.704Z,12.05
2023-05-10T05:43:58.521Z,12.16
2023-05-10T05:48:57.951Z,12.21
2023-05-10T05:53:56.806Z,12.31
2023-05-10T05:58:56.872Z,12.50
2023-05-10T06:03:55.797Z,12.57
2023-05-10T06:08:54.656Z,12.64
2023-05-10T06:13:53.495Z,12.73
2023-05-10T06:18:53.591Z,12.88
2023-05-10T06:23:52.347Z,12.95
2023-05-10T06:28:51.217Z,12.98
2023-05-10T06:33:49.993Z,13.05
2023-05-10T06:38:50.198Z,13.14
2023-05-10T06:43:48.929Z,13.18
2023-05-10T06:48:47.720Z,13.29
2023-05-10T06:53:46.526Z,14.58
2023-05-10T06:58:46.771Z,14.44
2023-05-10T07:03:45.593Z,14.40
2023-05-10T07:08:44.742Z,14.22
2023-05-10T07:13:45.342Z,14.33
2023-05-10T07:18:45.683Z,14.53
2023-05-10T07:23:45.302Z,14.64
2023-05-10T07:28:44.261Z,14.69
2023-05-10T07:33:42.920Z,14.84
2023-05-10T07:38:43.052Z,15.12
2023-05-10T07:43:42.102Z,15.36
2023-05-10T07:48:40.836Z,15.48
2023-05-10T07:53:40.124Z,15.84
2023-05-10T07:58:40.313Z,16.09
2023-05-10T08:03:39.212Z,16.18
2023-05-10T08:08:38.039Z,16.37
2023-05-10T08:13:37.275Z,16.78
2023-05-10T08:18:37.600Z,17.11
2023-05-10T08:23:36.436Z,17.52
2023-05-10T08:28:35.197Z,17.86
2023-05-10T08:33:34.223Z,18.27
2023-05-10T08:38:34.654Z,19.53
2023-05-10T08:43:36.794Z,20.22
2023-05-10T08:48:37.340Z,20.96
2023-05-10T08:53:39.327Z,21.17
2023-05-10T08:58:38.601Z,22.07
2023-05-10T09:03:37.666Z,23.22
2023-05-10T09:08:39.800Z,23.74
2023-05-10T09:13:38.616Z,24.24
2023-05-10T09:18:37.414Z,24.93
2023-05-10T09:23:37.879Z,25.59
2023-05-10T09:28:53.546Z,26.55
2023-05-10T09:33:52.670Z,26.68
2023-05-10T09:38:54.668Z,27.06
2023-05-10T09:43:58.057Z,27.38
2023-05-10T09:48:58.043Z,27.25
2023-05-10T09:54:14.412Z,27.49
2023-05-10T09:59:14.456Z,26.79
2023-05-10T10:04:13.731Z,27.23
2023-05-10T10:09:13.882Z,27.90
2023-05-10T10:14:14.585Z,28.40
2023-05-10T10:19:14.222Z,28.52
2023-05-10T10:24:14.479Z,28.16
2023-05-10T10:29:23.981Z,28.30
2023-05-10T10:34:29.531Z,27.76
2023-05-10T10:39:29.914Z,27.38
2023-05-10T10:44:40.408Z,27.34
2023-05-10T10:49:50.899Z,27.88
2023-05-10T10:54:54.423Z,28.12
2023-05-10T10:59:53.714Z,28.03
2023-05-10T11:04:52.460Z,27.07
2023-05-10T11:09:51.158Z,26.93
2023-05-10T11:14:53.998Z,27.76
2023-05-10T11:20:09.045Z,29.09
2023-05-10T11:25:08.975Z,28.87
2023-05-10T11:30:11.813Z,29.34
2023-05-10T11:35:11.579Z,28.38
2023-05-10T11:40:11.006Z,28.33
2023-05-10T11:45:12.267Z,27.95
2023-05-10T11:50:12.929Z,27.72
2023-05-10T11:55:11.733Z,27.39
2023-05-10T12:00:15.695Z,27.21
2023-05-10T12:05:17.962Z,26.58
2023-05-10T12:10:21.241Z,26.87
2023-05-10T12:15:22.997Z,27.62
2023-05-10T12:20:23.646Z,28.78
2023-05-10T12:25:24.162Z,29.32
2023-05-10T12:30:28.618Z,29.21
2023-05-10T12:35:27.533Z,29.36
2023-05-10T12:40:26.681Z,29.46
2023-05-10T12:45:26.688Z,30.31
2023-05-10T12:50:27.396Z,30.58
2023-05-10T12:55:26.191Z,30.68
2023-05-10T13:00:26.524Z,30.67
2023-05-10T13:05:25.376Z,30.56
2023-05-10T13:10:24.939Z,29.86
2023-05-10T13:15:23.753Z,29.20
2023-05-10T13:20:24.061Z,28.81
2023-05-10T13:25:22.837Z,26.91
2023-05-10T13:30:21.590Z,26.24
2023-05-10T13:35:20.324Z,25.65
2023-05-10T13:40:20.499Z,25.70
2023-05-10T13:45:19.428Z,25.35
2023-05-10T13:50:19.156Z,25.01
2023-05-10T13:55:18.208Z,24.55
2023-05-10T14:00:19.256Z,24.47
2023-05-10T14:05:22.344Z,24.47
2023-05-10T14:10:24.442Z,24.54
2023-05-10T14:15:24.843Z,24.93
2023-05-10T14:20:23.522Z,25.41
2023-05-10T14:25:22.361Z,26.40
2023-05-10T14:30:24.104Z,26.91
2023-05-10T14:35:25.929Z,27.30
2023-05-10T14:40:24.856Z,28.03
2023-05-10T14:45:23.664Z,28.80
2023-05-10T14:50:35.901Z,29.45
2023-05-10T14:55:36.998Z,30.57
2023-05-10T15:00:35.850Z,31.22
2023-05-10T15:05:35.211Z,31.88
2023-05-10T15:10:34.604Z,31.08
2023-05-10T15:15:34.900Z,30.57
2023-05-10T15:20:33.970Z,31.04
2023-05-10T15:25:35.565Z,30.29
2023-05-10T15:30:35.649Z,28.96
2023-05-10T15:35:36.801Z,28.06
2023-05-10T15:40:35.479Z,27.49
2023-05-10T15:45:37.569Z,27.04
2023-05-10T15:50:36.625Z,26.60
2023-05-10T15:55:35.441Z,25.51
2023-05-10T16:00:35.792Z,24.87
2023-05-10T16:05:34.461Z,24.28
2023-05-10T16:10:34.278Z,22.94
2023-05-10T16:15:33.071Z,21.70
2023-05-10T16:20:33.946Z,21.62
2023-05-10T16:25:32.784Z,21.31
2023-05-10T16:30:31.569Z,20.87
2023-05-10T16:35:31.033Z,20.51
2023-05-10T16:40:31.140Z,20.37
2023-05-10T16:45:32.582Z,20.35
2023-05-10T16:50:31.290Z,20.18
2023-05-10T16:55:31.493Z,20.05
2023-05-10T17:00:30.770Z,19.88
2023-05-10T17:05:31.579Z,19.78
2023-05-10T17:10:31.672Z,19.73
2023-05-10T17:15:30.706Z,19.35
2023-05-10T17:20:29.712Z,19.13
2023-05-10T17:25:28.612Z,19.06
2023-05-10T17:30:32.630Z,18.98
2023-05-10T17:35:31.875Z,18.93
2023-05-10T17:40:32.523Z,18.87
2023-05-10T17:45:33.474Z,18.58
2023-05-10T17:50:33.154Z,18.30
2023-05-10T17:55:33.634Z,18.07
2023-05-10T18:00:36.078Z,18.01
2023-05-10T18:05:37.586Z,17.44
2023-05-10T18:10:39.290Z,17.45
2023-05-10T18:15:41.211Z,17.29
2023-05-10T18:20:42.808Z,16.88
2023-05-10T18:25:41.662Z,16.64
2023-05-10T18:30:42.333Z,16.41
2023-05-10T18:35:41.468Z,16.13
2023-05-10T18:40:40.564Z,16.15
2023-05-10T18:45:40.283Z,16.04
2023-05-10T18:50:40.702Z,15.79
2023-05-10T18:55:39.532Z,15.84
2023-05-10T19:00:38.559Z,15.71
2023-05-10T19:05:37.315Z,15.65
2023-05-10T19:10:37.627Z,15.50
2023-05-10T19:15:36.730Z,15.51
2023-05-10T19:20:37.268Z,15.20
2023-05-10T19:25:39.519Z,15.15
2023-05-10T19:30:40.971Z,14.80
2023-05-10T19:35:40.862Z,14.77
2023-05-10T19:40:41.059Z,14.73
2023-05-10T19:45:40.062Z,14.60
2023-05-10T19:50:39.525Z,14.47
2023-05-10T19:55:40.683Z,14.37
2023-05-10T20:00:41.131Z,14.41
2023-05-10T20:05:39.970Z,14.27
2023-05-10T20:10:39.157Z,13.92
2023-05-10T20:15:37.909Z,13.94
2023-05-10T20:20:38.079Z,13.87
2023-05-10T20:25:37.157Z,13.96
2023-05-10T20:30:36.296Z,13.70
2023-05-10T20:35:35.130Z,13.61
2023-05-10T20:40:36.494Z,13.53
2023-05-10T20:45:36.874Z,13.60
2023-05-10T20:50:36.470Z,13.32
2023-05-10T20:55:40.850Z,13.08
2023-05-10T21:00:39.649Z,12.88
2023-05-10T21:05:38.537Z,13.03
2023-05-10T21:10:39.599Z,12.80
2023-05-10T21:15:38.455Z,12.51
2023-05-10T21:20:37.341Z,12.40
2023-05-10T21:25:36.462Z,12.38
2023-05-10T21:30:36.704Z,12.33
2023-05-10T21:35:35.472Z,12.42
2023-05-10T21:40:34.177Z,12.36
2023-05-10T21:45:33.307Z,12.39
2023-05-10T21:50:35.266Z,12.34
2023-05-10T21:55:34.401Z,12.41
2023-05-10T22:00:34.189Z,12.36
2023-05-10T22:05:34.487Z,12.21
2023-05-10T22:10:33.310Z,12.12
2023-05-10T22:15:34.164Z,12.23
2023-05-10T22:20:35.742Z,12.28
2023-05-10T22:25:34.418Z,12.39
2023-05-10T22:30:33.305Z,12.51
2023-05-10T22:35:32.054Z,12.52
2023-05-10T22:40:32.333Z,12.52
2023-05-10T22:45:31.078Z,12.57
2023-05-10T22:50:31.419Z,12.71
2023-05-10T22:55:31.757Z,12.54
2023-05-10T23:00:30.562Z,12.54
2023-05-10T23:05:29.272Z,12.56
2023-05-10T23:10:28.040Z,12.36
2023-05-10T23:15:28.208Z,12.36
2023-05-10T23:20:26.957Z,12.37
2023-05-10T23:25:25.771Z,12.42
2023-05-10T23:30:24.514Z,12.39
2023-05-10T23:35:24.591Z,12.31
2023-05-10T23:40:23.701Z,12.26
2023-05-10T23:45:22.514Z,12.20
2023-05-10T23:50:21.551Z,12.26
2023-05-10T23:55:21.746Z,12.17
